createdAt,value
2024-04-30T00:00:31.380Z,0.00
2024-04-30T00:01:31.331Z,0.00
2024-04-30T00:02:31.311Z,0.00
2024-04-30T00:03:31.349Z,0.00
2024-04-30T00:04:31.504Z,0.00
2024-04-30T00:05:31.305Z,0.00
2024-04-30T00:06:31.284Z,0.00
2024-04-30T00:07:31.363Z,0.00
2024-04-30T00:08:31.270Z,0.00
2024-04-30T00:09:31.249Z,0.00
2024-04-30T00:10:31.339Z,0.00
2024-04-30T00:11:31.278Z,0.00
2024-04-30T00:12:31.226Z,0.00
2024-04-30T00:13:31.294Z,0.00
2024-04-30T00:14:31.215Z,0.00
2024-04-30T00:15:31.206Z,0.00
2024-04-30T00:16:31.328Z,0.00
2024-04-30T00:17:31.218Z,0.00
2024-04-30T00:18:31.224Z,0.00
2024-04-30T00:19:31.268Z,0.00
2024-04-30T00:20:31.209Z,0.00
2024-04-30T00:21:31.185Z,0.00
2024-04-30T00:22:31.228Z,0.00
2024-04-30T00:23:31.142Z,0.00
2024-04-30T00:24:31.407Z,0.00
2024-04-30T00:25:31.273Z,0.00
2024-04-30T00:26:31.192Z,0.00
2024-04-30T00:27:31.121Z,0.00
2024-04-30T00:28:31.152Z,0.00
2024-04-30T00:29:31.216Z,0.00
2024-04-30T00:30:31.093Z,0.00
2024-04-30T00:31:31.166Z,0.00
2024-04-30T00:32:31.135Z,0.00
2024-04-30T00:33:31.080Z,0.00
2024-04-30T00:34:31.168Z,0.00
2024-04-30T00:35:31.098Z,0.00
2024-04-30T00:36:31.072Z,0.00
2024-04-30T00:37:31.080Z,0.00
2024-04-30T00:38:31.039Z,0.00
2024-04-30T00:39:31.035Z,0.00
2024-04-30T00:40:31.078Z,0.00
2024-04-30T00:41:31.042Z,0.00
2024-04-30T00:42:31.065Z,0.00
2024-04-30T00:43:31.070Z,0.00
2024-04-30T00:44:31.033Z,0.00
2024-04-30T00:45:31.015Z,0.00
2024-04-30T00:46:31.145Z,0.00
2024-04-30T00:47:31.010Z,0.00
2024-04-30T00:48:31.098Z,0.00
2024-04-30T00:49:31.082Z,0.00
2024-04-30T00:50:31.045Z,0.00
2024-04-30T00:51:31.235Z,0.00
2024-04-30T00:52:31.206Z,0.00
2024-04-30T00:53:31.328Z,0.00
2024-04-30T00:54:31.166Z,0.00
2024-04-30T00:55:31.003Z,0.00
2024-04-30T00:56:30.912Z,0.00
2024-04-30T00:57:30.909Z,0.00
2024-04-30T00:58:30.979Z,0.00
2024-04-30T00:59:30.880Z,0.00
2024-04-30T01:00:30.907Z,0.00
2024-04-30T01:01:31.030Z,0.00
2024-04-30T01:02:30.924Z,0.00
2024-04-30T01:03:30.961Z,0.00
2024-04-30T01:04:30.930Z,0.00
2024-04-30T01:05:30.846Z,0.00
2024-04-30T01:06:30.837Z,0.00
2024-04-30T01:07:31.113Z,0.00
2024-04-30T01:08:30.877Z,0.00
2024-04-30T01:09:30.823Z,0.00
2024-04-30T01:10:30.874Z,0.00
2024-04-30T01:11:30.858Z,0.00
2024-04-30T01:12:30.798Z,0.00
2024-04-30T01:13:31.646Z,0.00
2024-04-30T01:14:30.842Z,0.00
2024-04-30T01:15:30.776Z,0.00
2024-04-30T01:16:30.834Z,0.00
2024-04-30T01:17:30.888Z,0.00
2024-04-30T01:18:30.770Z,0.00
2024-04-30T01:19:30.847Z,0.00
2024-04-30T01:20:30.737Z,0.00
2024-04-30T01:21:30.739Z,0.00
2024-04-30T01:22:30.854Z,0.00
2024-04-30T01:23:30.805Z,0.00
2024-04-30T01:24:30.753Z,0.00
2024-04-30T01:25:30.839Z,0.00
2024-04-30T01:26:30.739Z,0.00
2024-04-30T01:27:30.723Z,0.00
2024-04-30T01:28:30.823Z,0.00
2024-04-30T01:29:30.690Z,0.00
2024-04-30T01:30:30.732Z,0.00
2024-04-30T01:31:30.731Z,0.00
2024-04-30T01:32:30.726Z,0.00
2024-04-30T01:33:30.704Z,0.00
2024-04-30T01:34:30.774Z,0.00
2024-04-30T01:35:30.681Z,0.00
2024-04-30T01:36:30.638Z,0.00
2024-04-30T01:37:30.706Z,0.00
2024-04-30T01:38:30.719Z,0.00
2024-04-30T01:39:30.612Z,0.00
2024-04-30T01:40:30.664Z,0.00
2024-04-30T01:41:30.680Z,0.00
2024-04-30T01:42:30.638Z,0.00
2024-04-30T01:43:31.048Z,0.00
2024-04-30T01:44:30.582Z,0.00
2024-04-30T01:45:30.641Z,0.00
2024-04-30T01:46:30.660Z,0.00
2024-04-30T01:47:30.670Z,0.00
2024-04-30T01:48:30.740Z,0.00
2024-04-30T01:49:30.704Z,0.00
2024-04-30T01:50:30.608Z,0.00
2024-04-30T01:51:30.531Z,0.00
2024-04-30T01:52:30.633Z,0.00
2024-04-30T01:53:30.579Z,0.00
2024-04-30T01:54:30.540Z,0.00
2024-04-30T01:55:30.656Z,0.00
2024-04-30T01:56:30.515Z,0.00
2024-04-30T01:57:30.537Z,0.00
2024-04-30T01:58:30.775Z,0.00
2024-04-30T01:59:30.481Z,0.00
2024-04-30T02:00:30.527Z,0.00
2024-04-30T02:01:30.470Z,0.00
2024-04-30T02:02:30.535Z,0.00
2024-04-30T02:03:30.602Z,0.00
2024-04-30T02:04:38.560Z,0.00
2024-04-30T02:05:31.662Z,0.00
2024-04-30T02:06:30.437Z,0.00
2024-04-30T02:07:30.541Z,0.00
2024-04-30T02:08:30.474Z,0.00
2024-04-30T02:09:31.393Z,0.00
2024-04-30T02:10:30.461Z,0.00
2024-04-30T02:11:30.455Z,0.00
2024-04-30T02:12:30.466Z,0.00
2024-04-30T02:13:30.466Z,0.00
2024-04-30T02:14:30.466Z,0.00
2024-04-30T02:15:30.488Z,0.00
2024-04-30T02:16:30.368Z,0.00
2024-04-30T02:17:30.571Z,0.00
2024-04-30T02:18:30.465Z,0.00
2024-04-30T02:19:30.578Z,0.00
2024-04-30T02:20:30.332Z,0.00
2024-04-30T02:21:30.427Z,0.00
2024-04-30T02:22:30.515Z,0.00
2024-04-30T02:23:30.378Z,0.00
2024-04-30T02:24:30.387Z,0.00
2024-04-30T02:25:30.364Z,0.00
2024-04-30T02:26:30.408Z,0.00
2024-04-30T02:27:30.409Z,0.00
2024-04-30T02:28:30.541Z,0.00
2024-04-30T02:29:30.371Z,0.00
2024-04-30T02:30:30.340Z,0.00
2024-04-30T02:31:30.360Z,0.00
2024-04-30T02:32:30.452Z,0.00
2024-04-30T02:33:30.303Z,0.00
2024-04-30T02:34:30.325Z,0.00
2024-04-30T02:35:30.292Z,0.00
2024-04-30T02:36:30.342Z,0.00
2024-04-30T02:37:30.248Z,0.00
2024-04-30T02:38:30.250Z,0.00
2024-04-30T02:39:30.236Z,0.00
2024-04-30T02:40:30.228Z,0.00
2024-04-30T02:41:30.211Z,0.00
2024-04-30T02:42:30.178Z,0.00
2024-04-30T02:43:30.741Z,0.00
2024-04-30T02:44:30.249Z,0.00
2024-04-30T02:45:30.183Z,0.00
2024-04-30T02:46:30.304Z,0.00
2024-04-30T02:47:30.286Z,0.00
2024-04-30T02:48:30.226Z,0.00
2024-04-30T02:49:30.359Z,0.00
2024-04-30T02:50:30.160Z,0.00
2024-04-30T02:51:30.115Z,0.00
2024-04-30T02:52:30.235Z,0.00
2024-04-30T02:53:30.121Z,0.00
2024-04-30T02:54:30.089Z,0.00
2024-04-30T02:55:30.222Z,0.00
2024-04-30T02:56:30.103Z,0.00
2024-04-30T02:57:30.079Z,0.00
2024-04-30T02:58:30.165Z,0.00
2024-04-30T02:59:30.051Z,0.00
2024-04-30T03:00:30.109Z,0.00
2024-04-30T03:01:30.069Z,0.00
2024-04-30T03:02:30.047Z,0.00
2024-04-30T03:03:30.140Z,0.00
2024-04-30T03:04:30.421Z,0.00
2024-04-30T03:05:30.024Z,0.00
2024-04-30T03:06:30.094Z,0.00
2024-04-30T03:07:30.051Z,0.00
2024-04-30T03:08:29.996Z,0.00
2024-04-30T03:09:30.001Z,0.00
2024-04-30T03:10:30.022Z,0.00
2024-04-30T03:11:30.027Z,0.00
2024-04-30T03:12:29.996Z,0.00
2024-04-30T03:13:30.006Z,0.00
2024-04-30T03:14:29.955Z,0.00
2024-04-30T03:15:29.968Z,0.00
2024-04-30T03:16:30.009Z,0.00
2024-04-30T03:17:30.285Z,0.00
2024-04-30T03:18:29.942Z,0.00
2024-04-30T03:19:30.047Z,0.00
2024-04-30T03:20:29.941Z,0.00
2024-04-30T03:21:29.903Z,0.00
2024-04-30T03:22:29.963Z,0.00
2024-04-30T03:23:29.950Z,0.00
2024-04-30T03:24:29.887Z,0.00
2024-04-30T03:25:29.902Z,0.00
2024-04-30T03:26:29.901Z,0.00
2024-04-30T03:27:30.944Z,0.00
2024-04-30T03:28:29.924Z,0.00
2024-04-30T03:29:29.856Z,4.00
2024-04-30T03:30:29.851Z,4.00
2024-04-30T03:31:29.988Z,0.00
2024-04-30T03:32:29.937Z,4.00
2024-04-30T03:33:29.995Z,4.00
2024-04-30T03:34:29.903Z,0.00
2024-04-30T03:35:29.820Z,4.00
2024-04-30T03:36:29.795Z,8.00
2024-04-30T03:37:29.839Z,4.00
2024-04-30T03:38:29.797Z,8.00
2024-04-30T03:39:29.800Z,8.00
2024-04-30T03:40:29.909Z,8.00
2024-04-30T03:41:29.779Z,8.00
2024-04-30T03:42:29.758Z,8.00
2024-04-30T03:43:29.775Z,12.00
2024-04-30T03:44:29.766Z,12.00
2024-04-30T03:45:29.735Z,16.00
2024-04-30T03:46:29.796Z,20.00
2024-04-30T03:47:29.807Z,24.00
2024-04-30T03:48:29.754Z,28.00
2024-04-30T03:49:29.766Z,28.00
2024-04-30T03:50:29.699Z,36.00
2024-04-30T03:51:29.692Z,40.00
2024-04-30T03:52:29.749Z,44.00
2024-04-30T03:53:29.721Z,48.00
2024-04-30T03:54:29.670Z,52.00
2024-04-30T03:55:29.723Z,60.00
2024-04-30T03:56:29.678Z,68.00
2024-04-30T03:57:29.656Z,72.00
2024-04-30T03:58:29.723Z,80.00
2024-04-30T03:59:29.659Z,84.00
2024-04-30T04:00:29.695Z,88.00
2024-04-30T04:01:29.644Z,100.00
2024-04-30T04:02:29.644Z,108.00
2024-04-30T04:03:29.691Z,120.00
2024-04-30T04:04:29.758Z,128.00
2024-04-30T04:05:29.593Z,140.00
2024-04-30T04:06:29.591Z,152.00
2024-04-30T04:07:29.635Z,164.00
2024-04-30T04:08:29.597Z,176.00
2024-04-30T04:09:29.582Z,188.00
2024-04-30T04:10:29.643Z,200.00
2024-04-30T04:11:29.621Z,216.00
2024-04-30T04:12:29.563Z,228.00
2024-04-30T04:13:29.617Z,240.00
2024-04-30T04:14:29.546Z,252.00
2024-04-30T04:15:29.553Z,260.00
2024-04-30T04:16:29.604Z,264.00
2024-04-30T04:17:29.630Z,268.00
2024-04-30T04:18:29.597Z,272.00
2024-04-30T04:19:29.547Z,280.00
2024-04-30T04:20:29.516Z,288.00
2024-04-30T04:21:29.535Z,300.00
2024-04-30T04:22:29.532Z,312.00
2024-04-30T04:23:29.537Z,332.00
2024-04-30T04:24:29.480Z,352.00
2024-04-30T04:25:29.597Z,380.00
2024-04-30T04:26:29.475Z,404.00
2024-04-30T04:27:29.448Z,432.00
2024-04-30T04:28:29.874Z,460.00
2024-04-30T04:29:29.455Z,484.00
2024-04-30T04:30:29.461Z,508.00
2024-04-30T04:31:29.455Z,528.00
2024-04-30T04:32:29.496Z,556.00
2024-04-30T04:33:29.411Z,580.00
2024-04-30T04:34:29.576Z,604.00
2024-04-30T04:35:29.461Z,652.00
2024-04-30T04:36:29.421Z,712.00
2024-04-30T04:37:29.473Z,768.00
2024-04-30T04:38:29.414Z,780.00
2024-04-30T04:39:29.383Z,748.00
2024-04-30T04:40:29.440Z,788.00
2024-04-30T04:41:29.366Z,844.00
2024-04-30T04:42:29.379Z,896.00
2024-04-30T04:43:29.353Z,944.00
2024-04-30T04:44:29.353Z,980.00
2024-04-30T04:45:29.355Z,1004.00
2024-04-30T04:46:29.395Z,1024.00
2024-04-30T04:47:29.385Z,1048.00
2024-04-30T04:48:29.519Z,1064.00
2024-04-30T04:49:29.326Z,1068.00
2024-04-30T04:50:29.294Z,1076.00
2024-04-30T04:51:29.295Z,1084.00
2024-04-30T04:52:29.393Z,1076.00
2024-04-30T04:53:29.304Z,1056.00
2024-04-30T04:54:29.264Z,1052.00
2024-04-30T04:55:29.301Z,1020.00
2024-04-30T04:56:29.266Z,1012.00
2024-04-30T04:57:29.275Z,1008.00
2024-04-30T04:58:29.347Z,1016.00
2024-04-30T04:59:29.270Z,1028.00
2024-04-30T05:00:29.267Z,1040.00
2024-04-30T05:01:29.287Z,1032.00
2024-04-30T05:02:29.269Z,1028.00
2024-04-30T05:03:29.251Z,1092.00
2024-04-30T05:04:29.296Z,1112.00
2024-04-30T05:05:29.187Z,1084.00
2024-04-30T05:06:29.220Z,1040.00
2024-04-30T05:07:29.231Z,980.00
2024-04-30T05:08:29.258Z,960.00
2024-04-30T05:09:29.153Z,1020.00
2024-04-30T05:10:29.313Z,1092.00
2024-04-30T05:11:29.206Z,1144.00
2024-04-30T05:12:29.131Z,1312.00
2024-04-30T05:13:29.186Z,1492.00
2024-04-30T05:14:36.405Z,1496.00
2024-04-30T05:15:29.115Z,1596.00
2024-04-30T05:16:29.183Z,1756.00
2024-04-30T05:17:29.284Z,2248.00
2024-04-30T05:18:29.128Z,4260.00
2024-04-30T05:19:29.143Z,5444.00
2024-04-30T05:20:29.085Z,5380.00
2024-04-30T05:21:29.099Z,5528.00
2024-04-30T05:22:29.112Z,5468.00
2024-04-30T05:23:29.104Z,4816.00
2024-04-30T05:24:29.079Z,6276.00
2024-04-30T05:25:29.329Z,6320.00
2024-04-30T05:26:29.050Z,6184.00
2024-04-30T05:27:29.036Z,6112.00
2024-04-30T05:28:29.217Z,6352.00
2024-04-30T05:29:29.054Z,6328.00
2024-04-30T05:30:29.015Z,6584.00
2024-04-30T05:31:29.033Z,7784.00
2024-04-30T05:32:29.114Z,4116.00
2024-04-30T05:33:29.586Z,3120.00
2024-04-30T05:34:29.141Z,2748.00
2024-04-30T05:35:28.988Z,2272.00
2024-04-30T05:36:28.972Z,2124.00
2024-04-30T05:37:29.009Z,2092.00
2024-04-30T05:38:28.990Z,2260.00
2024-04-30T05:39:28.994Z,2496.00
2024-04-30T05:40:28.997Z,2748.00
2024-04-30T05:41:29.023Z,2860.00
2024-04-30T05:42:28.929Z,2784.00
2024-04-30T05:43:28.984Z,2596.00
2024-04-30T05:44:28.924Z,2420.00
2024-04-30T05:45:28.908Z,2252.00
2024-04-30T05:46:29.012Z,2096.00
2024-04-30T05:47:28.901Z,2008.00
2024-04-30T05:48:28.917Z,2004.00
2024-04-30T05:49:28.907Z,2056.00
2024-04-30T05:50:28.892Z,2092.00
2024-04-30T05:51:28.868Z,2104.00
2024-04-30T05:52:28.911Z,2120.00
2024-04-30T05:53:28.880Z,2140.00
2024-04-30T05:54:28.856Z,2164.00
2024-04-30T05:55:28.862Z,2196.00
2024-04-30T05:56:28.851Z,2248.00
2024-04-30T05:57:28.852Z,2308.00
2024-04-30T05:58:28.891Z,2360.00
2024-04-30T05:59:28.824Z,2404.00
2024-04-30T06:00:29.277Z,2468.00
2024-04-30T06:01:28.821Z,2568.00
2024-04-30T06:02:28.784Z,2672.00
2024-04-30T06:03:28.850Z,2760.00
2024-04-30T06:04:28.860Z,2880.00
2024-04-30T06:05:29.680Z,3028.00
2024-04-30T06:06:28.762Z,3260.00
2024-04-30T06:07:28.846Z,3908.00
2024-04-30T06:08:28.751Z,4036.00
2024-04-30T06:09:28.774Z,6736.00
2024-04-30T06:10:28.793Z,6104.00
2024-04-30T06:11:28.797Z,7908.00
2024-04-30T06:12:28.749Z,10452.00
2024-04-30T06:13:28.741Z,15264.00
2024-04-30T06:14:28.728Z,16416.00
2024-04-30T06:15:28.695Z,17056.00
2024-04-30T06:16:28.760Z,17856.00
2024-04-30T06:17:28.728Z,20352.00
2024-04-30T06:18:28.724Z,23904.00
2024-04-30T06:19:28.730Z,26016.00
2024-04-30T06:20:28.660Z,18176.00
2024-04-30T06:21:31.774Z,20960.00
2024-04-30T06:22:29.690Z,17568.00
2024-04-30T06:23:28.654Z,15648.00
2024-04-30T06:24:28.656Z,26816.00
2024-04-30T06:25:28.654Z,33440.00
2024-04-30T06:26:28.634Z,23392.00
2024-04-30T06:27:28.744Z,15328.00
2024-04-30T06:28:30.282Z,28064.00
2024-04-30T06:29:28.731Z,20480.00
2024-04-30T06:30:28.623Z,13172.00
2024-04-30T06:31:28.666Z,10036.00
2024-04-30T06:32:28.594Z,10752.00
2024-04-30T06:33:28.733Z,11648.00
2024-04-30T06:34:28.625Z,8944.00
2024-04-30T06:35:28.592Z,7544.00
2024-04-30T06:36:28.558Z,10584.00
2024-04-30T06:37:28.596Z,6792.00
2024-04-30T06:38:28.539Z,6732.00
2024-04-30T06:39:28.580Z,7352.00
2024-04-30T06:40:28.548Z,6468.00
2024-04-30T06:41:28.526Z,6824.00
2024-04-30T06:42:28.540Z,7912.00
2024-04-30T06:43:28.541Z,7872.00
2024-04-30T06:44:28.567Z,10032.00
2024-04-30T06:45:28.495Z,9436.00
2024-04-30T06:46:28.551Z,10044.00
2024-04-30T06:47:28.520Z,13508.00
2024-04-30T06:48:28.530Z,15520.00
2024-04-30T06:49:28.535Z,9680.00
2024-04-30T06:50:28.536Z,11528.00
2024-04-30T06:51:28.465Z,8892.00
2024-04-30T06:52:28.510Z,8316.00
2024-04-30T06:53:28.442Z,10348.00
2024-04-30T06:54:28.473Z,10252.00
2024-04-30T06:55:28.501Z,8776.00
2024-04-30T06:56:28.418Z,6976.00
2024-04-30T06:57:28.429Z,6640.00
2024-04-30T06:58:28.452Z,8452.00
2024-04-30T06:59:28.417Z,8260.00
2024-04-30T07:00:28.412Z,9608.00
2024-04-30T07:01:28.450Z,12060.00
2024-04-30T07:02:28.387Z,12324.00
2024-04-30T07:03:28.372Z,12772.00
2024-04-30T07:04:28.433Z,12012.00
2024-04-30T07:05:28.457Z,11484.00
2024-04-30T07:06:28.420Z,10804.00
2024-04-30T07:07:28.369Z,12432.00
2024-04-30T07:08:28.364Z,12388.00
2024-04-30T07:09:28.321Z,11208.00
2024-04-30T07:10:28.357Z,8980.00
2024-04-30T07:11:28.354Z,11116.00
2024-04-30T07:12:28.337Z,12292.00
2024-04-30T07:13:28.329Z,12348.00
2024-04-30T07:14:28.295Z,12252.00
2024-04-30T07:15:28.282Z,12284.00
2024-04-30T07:16:28.349Z,12388.00
2024-04-30T07:17:28.523Z,12440.00
2024-04-30T07:18:28.449Z,12412.00
2024-04-30T07:19:28.284Z,12436.00
2024-04-30T07:20:28.247Z,12436.00
2024-04-30T07:21:28.241Z,12392.00
2024-04-30T07:22:28.279Z,12388.00
2024-04-30T07:23:28.223Z,12332.00
2024-04-30T07:24:28.220Z,12356.00
2024-04-30T07:25:29.180Z,12400.00
2024-04-30T07:26:28.207Z,12440.00
2024-04-30T07:27:28.225Z,12444.00
2024-04-30T07:28:28.239Z,12432.00
2024-04-30T07:29:28.212Z,12432.00
2024-04-30T07:30:28.208Z,12468.00
2024-04-30T07:31:28.275Z,12508.00
2024-04-30T07:32:28.255Z,12516.00
2024-04-30T07:33:28.316Z,12584.00
2024-04-30T07:34:28.409Z,12600.00
2024-04-30T07:35:28.144Z,12600.00
2024-04-30T07:36:28.136Z,12628.00
2024-04-30T07:37:28.171Z,12636.00
2024-04-30T07:38:28.126Z,12648.00
2024-04-30T07:39:28.114Z,12632.00
2024-04-30T07:40:28.133Z,12644.00
2024-04-30T07:41:28.110Z,12672.00
2024-04-30T07:42:28.126Z,12668.00
2024-04-30T07:43:28.173Z,12656.00
2024-04-30T07:44:28.101Z,12676.00
2024-04-30T07:45:28.112Z,12656.00
2024-04-30T07:46:28.208Z,12556.00
2024-04-30T07:47:28.157Z,12500.00
2024-04-30T07:48:28.357Z,12700.00
2024-04-30T07:49:28.073Z,12720.00
2024-04-30T07:50:28.060Z,12792.00
2024-04-30T07:51:28.037Z,12760.00
2024-04-30T07:52:28.073Z,12484.00
2024-04-30T07:53:28.111Z,12208.00
2024-04-30T07:54:28.020Z,12276.00
2024-04-30T07:55:28.063Z,12528.00
2024-04-30T07:56:28.015Z,12892.00
2024-04-30T07:57:28.002Z,12928.00
2024-04-30T07:58:28.029Z,12928.00
2024-04-30T07:59:27.987Z,12948.00
2024-04-30T08:00:28.094Z,12960.00
2024-04-30T08:01:27.999Z,12976.00
2024-04-30T08:02:28.012Z,12984.00
2024-04-30T08:03:28.018Z,13000.00
2024-04-30T08:04:28.035Z,13040.00
2024-04-30T08:05:28.651Z,13016.00
2024-04-30T08:06:27.946Z,13044.00
2024-04-30T08:07:27.995Z,13060.00
2024-04-30T08:08:27.955Z,13092.00
2024-04-30T08:09:27.921Z,13100.00
2024-04-30T08:10:27.979Z,13140.00
2024-04-30T08:11:27.930Z,13188.00
2024-04-30T08:12:27.905Z,13224.00
2024-04-30T08:13:27.915Z,13244.00
2024-04-30T08:14:27.915Z,13260.00
2024-04-30T08:15:27.925Z,13300.00
2024-04-30T08:16:27.964Z,13316.00
2024-04-30T08:17:27.978Z,13332.00
2024-04-30T08:18:27.890Z,13348.00
2024-04-30T08:19:27.936Z,13368.00
2024-04-30T08:20:27.935Z,13388.00
2024-04-30T08:21:27.886Z,13404.00
2024-04-30T08:22:27.878Z,13396.00
2024-04-30T08:23:27.852Z,13432.00
2024-04-30T08:24:28.137Z,13436.00
2024-04-30T08:25:27.852Z,13460.00
2024-04-30T08:26:27.811Z,13460.00
2024-04-30T08:27:27.819Z,13468.00
2024-04-30T08:28:27.936Z,13484.00
2024-04-30T08:29:27.848Z,13492.00
2024-04-30T08:30:27.783Z,13532.00
2024-04-30T08:31:27.799Z,13532.00
2024-04-30T08:32:27.916Z,13556.00
2024-04-30T08:33:27.874Z,13560.00
2024-04-30T08:34:27.844Z,13576.00
2024-04-30T08:35:27.761Z,13588.00
2024-04-30T08:36:30.443Z,13608.00
2024-04-30T08:37:29.262Z,13624.00
2024-04-30T08:38:27.751Z,13632.00
2024-04-30T08:39:27.776Z,13636.00
2024-04-30T08:40:27.736Z,13644.00
2024-04-30T08:41:27.713Z,13652.00
2024-04-30T08:42:27.702Z,13688.00
2024-04-30T08:43:27.735Z,13692.00
2024-04-30T08:44:27.747Z,13712.00
2024-04-30T08:45:27.680Z,13728.00
2024-04-30T08:46:27.734Z,13740.00
2024-04-30T08:47:27.838Z,13772.00
2024-04-30T08:48:28.579Z,13788.00
2024-04-30T08:49:33.946Z,13824.00
2024-04-30T08:50:28.688Z,13840.00
2024-04-30T08:51:27.632Z,13844.00
2024-04-30T08:52:27.665Z,13868.00
2024-04-30T08:53:27.626Z,13892.00
2024-04-30T08:54:27.638Z,13960.00
2024-04-30T08:55:27.643Z,14000.00
2024-04-30T08:56:27.595Z,14020.00
2024-04-30T08:57:27.614Z,14052.00
2024-04-30T08:58:27.609Z,14052.00
2024-04-30T08:59:27.597Z,14088.00
2024-04-30T09:00:27.581Z,14120.00
2024-04-30T09:01:27.611Z,14148.00
2024-04-30T09:02:27.572Z,14196.00
2024-04-30T09:03:27.661Z,14240.00
2024-04-30T09:04:28.295Z,14268.00
2024-04-30T09:05:27.539Z,14292.00
2024-04-30T09:06:27.524Z,14316.00
2024-04-30T09:07:27.550Z,14340.00
2024-04-30T09:08:27.711Z,14376.00
2024-04-30T09:09:27.502Z,14396.00
2024-04-30T09:10:27.544Z,14400.00
2024-04-30T09:11:27.581Z,14436.00
2024-04-30T09:12:27.738Z,14460.00
2024-04-30T09:13:27.543Z,14488.00
2024-04-30T09:14:27.495Z,14508.00
2024-04-30T09:15:27.477Z,14528.00
2024-04-30T09:16:27.645Z,14544.00
2024-04-30T09:17:27.503Z,14568.00
2024-04-30T09:18:27.466Z,14576.00
2024-04-30T09:19:27.536Z,14568.00
2024-04-30T09:20:27.419Z,14596.00
2024-04-30T09:21:27.428Z,14628.00
2024-04-30T09:22:27.530Z,14624.00
2024-04-30T09:23:27.413Z,14648.00
2024-04-30T09:24:27.660Z,14652.00
2024-04-30T09:25:27.432Z,14688.00
2024-04-30T09:26:27.462Z,14692.00
2024-04-30T09:27:27.409Z,14716.00
2024-04-30T09:28:27.455Z,14740.00
2024-04-30T09:29:27.436Z,14748.00
2024-04-30T09:30:27.679Z,14756.00
2024-04-30T09:31:27.365Z,14760.00
2024-04-30T09:32:27.420Z,14764.00
2024-04-30T09:33:27.402Z,14764.00
2024-04-30T09:34:27.337Z,14800.00
2024-04-30T09:35:27.300Z,14824.00
2024-04-30T09:36:27.326Z,14836.00
2024-04-30T09:37:27.344Z,14852.00
2024-04-30T09:38:27.317Z,14852.00
2024-04-30T09:39:27.291Z,14852.00
2024-04-30T09:40:27.327Z,14852.00
2024-04-30T09:41:27.262Z,14804.00
2024-04-30T09:42:27.426Z,14712.00
2024-04-30T09:43:27.292Z,14644.00
2024-04-30T09:44:27.240Z,14596.00
2024-04-30T09:45:27.236Z,14612.00
2024-04-30T09:46:27.308Z,14616.00
2024-04-30T09:47:27.311Z,14628.00
2024-04-30T09:48:27.250Z,14628.00
2024-04-30T09:49:27.284Z,14644.00
2024-04-30T09:50:27.206Z,14656.00
2024-04-30T09:51:27.204Z,14652.00
2024-04-30T09:52:27.222Z,14656.00
2024-04-30T09:53:27.309Z,14668.00
2024-04-30T09:54:28.483Z,14676.00
2024-04-30T09:55:27.338Z,14668.00
2024-04-30T09:56:27.182Z,14680.00
2024-04-30T09:57:27.172Z,14680.00
2024-04-30T09:58:27.209Z,14684.00
2024-04-30T09:59:27.155Z,14716.00
2024-04-30T10:00:28.874Z,14716.00
2024-04-30T10:01:27.215Z,14716.00
2024-04-30T10:02:27.125Z,14724.00
2024-04-30T10:03:27.145Z,14752.00
2024-04-30T10:04:27.166Z,14784.00
2024-04-30T10:05:27.180Z,14852.00
2024-04-30T10:06:27.103Z,14900.00
2024-04-30T10:07:27.150Z,14948.00
2024-04-30T10:08:27.128Z,14980.00
2024-04-30T10:09:27.092Z,15008.00
2024-04-30T10:10:27.182Z,15044.00
2024-04-30T10:11:27.084Z,15076.00
2024-04-30T10:12:29.454Z,15104.00
2024-04-30T10:13:27.138Z,15096.00
2024-04-30T10:14:27.074Z,15112.00
2024-04-30T10:15:27.065Z,15132.00
2024-04-30T10:16:27.092Z,15140.00
2024-04-30T10:17:27.164Z,15140.00
2024-04-30T10:18:27.038Z,15148.00
2024-04-30T10:19:27.106Z,15164.00
2024-04-30T10:20:27.030Z,15180.00
2024-04-30T10:21:27.030Z,15168.00
2024-04-30T10:22:27.076Z,15168.00
2024-04-30T10:23:26.996Z,15184.00
2024-04-30T10:24:27.020Z,15180.00
2024-04-30T10:25:27.023Z,15200.00
2024-04-30T10:26:27.001Z,15392.00
2024-04-30T10:27:26.979Z,15392.00
2024-04-30T10:28:27.013Z,15424.00
2024-04-30T10:29:26.977Z,15392.00
2024-04-30T10:30:26.956Z,15424.00
2024-04-30T10:31:26.982Z,15456.00
2024-04-30T10:32:26.967Z,15520.00
2024-04-30T10:33:26.951Z,15584.00
2024-04-30T10:34:27.055Z,15648.00
2024-04-30T10:35:26.967Z,15680.00
2024-04-30T10:36:26.906Z,15776.00
2024-04-30T10:37:26.924Z,15808.00
2024-04-30T10:38:27.053Z,15872.00
2024-04-30T10:39:27.483Z,15968.00
2024-04-30T10:40:26.871Z,16032.00
2024-04-30T10:41:26.877Z,16128.00
2024-04-30T10:42:26.868Z,16160.00
2024-04-30T10:43:26.900Z,16224.00
2024-04-30T10:44:26.906Z,16256.00
2024-04-30T10:45:26.851Z,16320.00
2024-04-30T10:46:26.866Z,16384.00
2024-04-30T10:47:26.901Z,16448.00
2024-04-30T10:48:26.884Z,16480.00
2024-04-30T10:49:26.841Z,16512.00
2024-04-30T10:50:27.212Z,16512.00
2024-04-30T10:51:26.892Z,16576.00
2024-04-30T10:52:26.848Z,16608.00
2024-04-30T10:53:26.800Z,16640.00
2024-04-30T10:54:26.812Z,16672.00
2024-04-30T10:55:26.803Z,16672.00
2024-04-30T10:56:26.782Z,16736.00
2024-04-30T10:57:26.777Z,16768.00
2024-04-30T10:58:26.783Z,16864.00
2024-04-30T10:59:26.889Z,16928.00
2024-04-30T11:00:26.833Z,17184.00
2024-04-30T11:01:26.911Z,20448.00
2024-04-30T11:02:26.741Z,26624.00
2024-04-30T11:03:26.811Z,27360.00
2024-04-30T11:04:27.912Z,27200.00
2024-04-30T11:05:26.893Z,30816.00
2024-04-30T11:06:26.737Z,34464.00
2024-04-30T11:07:26.716Z,36672.00
2024-04-30T11:08:26.750Z,36352.00
2024-04-30T11:09:28.662Z,37376.00
2024-04-30T11:10:26.702Z,37280.00
2024-04-30T11:11:26.693Z,37280.00
2024-04-30T11:12:26.674Z,37728.00
2024-04-30T11:13:26.764Z,37312.00
2024-04-30T11:14:26.666Z,36736.00
2024-04-30T11:15:26.653Z,36736.00
2024-04-30T11:16:26.687Z,37664.00
2024-04-30T11:17:27.049Z,35456.00
2024-04-30T11:18:26.777Z,37536.00
2024-04-30T11:19:26.646Z,35584.00
2024-04-30T11:20:26.675Z,34016.00
2024-04-30T11:21:26.611Z,32672.00
2024-04-30T11:22:26.617Z,39232.00
2024-04-30T11:23:26.638Z,40032.00
2024-04-30T11:24:26.608Z,39904.00
2024-04-30T11:25:26.612Z,39584.00
2024-04-30T11:26:26.654Z,39360.00
2024-04-30T11:27:26.576Z,38336.00
2024-04-30T11:28:26.620Z,40160.00
2024-04-30T11:30:26.554Z,39616.00
2024-04-30T11:31:26.584Z,41216.00
2024-04-30T11:32:26.618Z,40672.00
2024-04-30T11:33:29.846Z,40928.00
2024-04-30T11:34:26.616Z,41056.00
2024-04-30T11:35:26.539Z,40800.00
2024-04-30T11:36:26.529Z,40896.00
2024-04-30T11:37:26.620Z,40672.00
2024-04-30T11:38:26.609Z,41056.00
2024-04-30T11:39:26.536Z,40800.00
2024-04-30T11:40:26.538Z,40416.00
2024-04-30T11:41:26.490Z,40704.00
2024-04-30T11:42:31.273Z,39680.00
2024-04-30T11:43:27.734Z,40896.00
2024-04-30T11:44:26.470Z,42048.00
2024-04-30T11:45:26.460Z,41536.00
2024-04-30T11:46:26.502Z,41248.00
2024-04-30T11:47:26.537Z,39456.00
2024-04-30T11:48:29.599Z,37408.00
2024-04-30T11:49:26.566Z,37504.00
2024-04-30T11:50:26.431Z,38176.00
2024-04-30T11:51:26.420Z,38848.00
2024-04-30T11:52:26.466Z,42336.00
2024-04-30T11:53:26.543Z,41568.00
2024-04-30T11:54:26.434Z,40160.00
2024-04-30T11:55:26.440Z,39328.00
2024-04-30T11:56:26.511Z,39424.00
2024-04-30T11:57:26.428Z,40192.00
2024-04-30T11:58:26.461Z,40896.00
2024-04-30T11:59:26.409Z,41056.00
2024-04-30T12:00:26.381Z,42176.00
2024-04-30T12:01:26.545Z,42560.00
2024-04-30T12:02:26.398Z,43232.00
2024-04-30T12:03:26.343Z,42816.00
2024-04-30T12:04:26.648Z,41600.00
2024-04-30T12:05:26.356Z,41472.00
2024-04-30T12:06:26.399Z,40224.00
2024-04-30T12:07:26.358Z,39584.00
2024-04-30T12:08:26.323Z,38400.00
2024-04-30T12:09:26.384Z,39712.00
2024-04-30T12:10:26.339Z,38688.00
2024-04-30T12:11:26.397Z,37312.00
2024-04-30T12:12:26.304Z,37152.00
2024-04-30T12:13:26.381Z,36032.00
2024-04-30T12:14:26.304Z,36800.00
2024-04-30T12:15:26.317Z,35232.00
2024-04-30T12:16:26.385Z,32448.00
2024-04-30T12:17:26.444Z,30784.00
2024-04-30T12:18:26.309Z,31840.00
2024-04-30T12:19:26.346Z,32032.00